Station: Warruwi

  Atmospheric Gas Attenuation - ITU Rec 676-11   --------------- db/100km ---------------
Date Time Temp RH % AH g/m3 Dew Point Wind Direction Speed kph Gust kph Barometer mB Rainfall Since 9am 24GHz 47GHz 76GHz 122GHz 134GHz 241GHz
07 07:30 23.4 93 19.55 22.2 7 9 1012.5 0 42.3 41.9 81.5 215.6 238.3 827.5
07 07:20 23.4 93 19.55 22.2 6 6 1013.1 0 42.3 41.9 81.5 215.7 238.4 827.9
07 07:10 23.2 93 19.33 22 6 7 1013.1 0 41.9 41.6 80.7 213.4 235.5 817.8
07 07:00 23.3 93 19.44 22.1 7 11 1012.3 0 42.1 41.7 81.0 214.4 236.8 822.4
07 06:50 23.4 93 19.55 22.2 9 9 1013.1 0 42.3 41.9 81.5 215.7 238.4 827.9
07 06:40 23.4 93 19.55 22.2 9 11 1013.1 0 42.3 41.9 81.5 215.7 238.4 827.9
07 06:30 23.4 92 19.34 22 6 9 1011.8 0 41.9 41.4 80.4 212.7 234.8 815.5
07 06:20 23.5 92 19.45 22.1 7 7 1013.1 0 42.1 41.6 80.9 214.1 236.5 821.2
07 06:10 23.5 92 19.45 22.1 9 11 1013.1 0 42.1 41.6 80.9 214.1 236.5 821.2
07 06:00 23.5 92 19.45 22.1 7 13 1011.5 0 42.1 41.6 80.8 213.8 236.2 820.3
07 05:50 23.5 92 19.45 22.1 6 7 1013.1 0 42.1 41.6 80.9 214.1 236.5 821.2
07 05:40 23.5 92 19.45 22.1 6 7 1013.1 0 42.1 41.6 80.9 214.1 236.5 821.2
07 05:30 23.5 91 19.24 21.9 7 11 1011.3 0 41.6 41.2 79.8 211.1 232.8 808.6
07 05:20 23.6 92 19.57 22.2 9 11 1013.1 0 42.3 41.8 81.4 215.4 238.1 826.8
07 05:10 23.6 91 19.35 22 6 6 1013.1 0 41.9 41.4 80.3 212.5 234.6 814.6
07 04:50 23.7 91 19.46 22.1 11 13 1013.1 0 42.1 41.6 80.8 213.7 236.0 819.6
07 04:40 23.7 91 19.46 22.1 9 9 1013.1 0 42.1 41.6 80.8 213.7 236.0 819.6
07 04:30 23.8 90 19.36 22.1 9 15 1010.9 0 41.9 41.2 80.0 211.7 233.7 811.7
07 04:20 23.9 91 19.69 22.3 11 13 1013.1 0 42.6 41.9 81.7 216.1 239.0 830.1
07 04:10 23.8 90 19.36 22 9 11 1013.1 0 41.9 41.3 80.2 212.1 234.1 812.9
07 04:00 23.7 90 19.25 22 7 11 1010.8 0 41.6 41.0 79.6 210.6 232.3 806.7
07 03:50 23.7 90 19.25 21.9 9 11 1013.1 0 41.6 41.2 79.7 210.9 232.7 808.0
07 03:40 23.6 88 18.72 21.6 6 6 1013.1 0 40.5 40.2 77.3 204.4 224.6 780.0
07 03:30 23.7 88 18.82 21.6 6 9 1010.8 0 40.7 40.2 77.5 205.1 225.5 783.2
07 03:20 23.8 87 18.71 21.5 6 9 1013.1 0 40.5 40.1 77.0 203.7 223.9 777.4
07 03:10 23.9 87 18.82 21.6 6 6 1013.1 0 40.7 40.2 77.5 204.9 225.3 782.3
07 03:00 24.1 87 19.03 21.8 6 11 1011.1 0 41.1 40.4 78.1 206.7 227.6 790.6
07 02:50 24.1 87 19.03 21.9 6 9 1013.1 0 41.1 40.5 78.3 207.0 228.0 791.7
07 02:40 24.1 87 19.03 21.9 6 7 1013.1 0 41.1 40.5 78.3 207.0 228.0 791.7
07 02:30 24.2 88 19.36 22.1 9 13 1011.3 0 41.8 41.0 79.6 210.7 232.5 807.6
07 02:20 24.1 87 19.03 21.8 7 9 1013.1 0 41.1 40.5 78.3 207.0 228.0 791.7
07 02:10 24.2 87 19.14 21.9 7 9 1013.1 0 41.3 40.7 78.7 208.1 229.4 796.6
07 02:00 24.3 88 19.47 22.2 9 13 1011.6 0 42.0 41.2 80.1 211.8 234.0 812.8
07 01:50 24.3 88 19.47 22.3 11 13 1013.1 0 42.0 41.3 80.2 212.1 234.3 813.6
07 01:40 24.1 88 19.25 22.1 6 7 1013.1 0 41.6 41.0 79.3 209.8 231.4 803.7
07 01:30 24.1 89 19.47 22.2 6 9 1011.8 0 42.1 41.3 80.3 212.4 234.7 815.0
07 01:20 24.1 88 19.25 22.1 6 9 1013.1 0 41.6 41.0 79.3 209.8 231.4 803.7
07 01:10 24.1 88 19.25 22.1 4 6 1013.1 0 41.6 41.0 79.3 209.8 231.4 803.7
07 01:00 24.1 88 19.25 22 6 7 1012 0 41.6 40.9 79.2 209.6 231.2 803.1
07 00:50 24.2 87 19.14 22 4 6 1013.1 0 41.3 40.7 78.7 208.1 229.4 796.6
07 00:40 24.3 87 19.25 22.1 6 7 1013.1 0 41.6 40.9 79.1 209.3 230.8 801.5
07 00:30 24.2 88 19.36 22.1 4 7 1012.4 0 41.8 41.1 79.7 210.8 232.7 808.2
07 00:20 24.3 87 19.25 22.1 7 9 1013.1 0 41.6 40.9 79.1 209.3 230.8 801.5
07 00:10 24.3 87 19.25 22.1 6 7 1013.1 0 41.6 40.9 79.1 209.3 230.8 801.5
07 00:00 24.3 88 19.47 22.2 4 9 1012.6 0 42.0 41.3 80.1 212.0 234.2 813.3
06 23:50 24.3 87 19.25 22.1 4 6 1013.1 0 41.6 40.9 79.1 209.3 230.8 801.5
06 23:40 24.3 87 19.25 22.1 4 4 1013.1 0 41.6 40.9 79.1 209.3 230.8 801.5
06 23:30 24.4 88 19.58 22.3 4 7 1012.5 0 42.3 41.4 80.5 213.1 235.6 818.2
06 23:20 24.4 87 19.36 22.2 4 6 1013.1 0 41.8 41.0 79.5 210.4 232.2 806.5
06 23:10 24.4 87 19.36 22.2 6 7 1013.1 0 41.8 41.0 79.5 210.4 232.2 806.5
06 23:00 24.5 88 19.69 22.4 4 7 1012.5 0 42.5 41.6 81.0 214.3 237.0 823.2
06 22:50 24.5 87 19.47 22.3 6 6 1013.1 0 42.0 41.2 79.9 211.5 233.6 811.4
06 22:40 24.5 87 19.47 22.3 6 6 1013.1 0 42.0 41.2 79.9 211.5 233.6 811.4
06 22:30 24.5 88 19.69 22.4 4 11 1012.4 0 42.5 41.6 81.0 214.2 237.0 823.1
06 22:20 24.6 87 19.58 22.3 4 4 1013.1 0 42.2 41.3 80.4 212.7 235.0 816.4
06 22:10 24.7 86 19.47 22.3 4 6 1013.1 0 42.0 41.1 79.7 211.0 233.0 809.3
06 22:00 24.7 87 19.69 22.4 4 6 1012.1 0 42.5 41.5 80.7 213.6 236.3 820.8
06 21:50 24.8 86 19.57 22.4 7 11 1013.1 0 42.2 41.2 80.1 212.0 234.3 813.6
06 21:40 24.8 86 19.57 22.3 2 4 1013.1 0 42.2 41.2 80.1 212.0 234.3 813.6
06 21:30 24.8 87 19.8 22.5 4 11 1011.9 0 42.7 41.6 81.1 214.7 237.7 825.6
06 21:20 24.9 86 19.69 22.5 6 7 1013.1 0 42.4 41.4 80.6 213.2 235.8 819.1
06 21:10 25 86 19.8 22.6 4 7 1013.1 0 42.7 41.6 81.0 214.3 237.2 824.1
06 21:00 25 87 20.03 22.7 6 9 1011.6 0 43.2 42.0 82.0 217.1 240.6 835.8
06 20:50 25 86 19.8 22.5 6 7 1013.1 0 42.7 41.6 81.0 214.3 237.2 824.1
06 20:40 25 86 19.8 22.5 6 7 1013.1 0 42.7 41.6 81.0 214.3 237.2 824.1
06 20:30 25 86 19.8 22.5 4 9 1011.3 0 42.7 41.5 80.9 214.1 236.9 823.1
06 20:20 25.1 86 19.91 22.6 4 7 1013.1 0 42.9 41.7 81.4 215.5 238.7 829.0
06 20:10 25.1 85 19.68 22.4 7 11 1013.1 0 42.4 41.3 80.3 212.5 235.0 816.4
06 20:00 25.1 84 19.45 22.2 6 9 1010.7 0 41.9 40.7 79.1 209.2 231.1 802.6
06 19:50 25.2 83 19.32 22.1 9 11 1013.1 0 41.6 40.5 78.5 207.7 229.1 795.8
06 19:40 25.2 82 19.09 21.9 7 13 1013.1 0 41.1 40.1 77.4 204.8 225.5 783.4
06 19:30 25.2 81 18.86 21.7 6 13 1010.5 0 40.7 39.6 76.2 201.5 221.6 769.7
06 19:20 25.3 80 18.73 21.6 7 9 1013.1 0 40.4 39.4 75.6 200.0 219.7 763.2
06 19:10 25.3 79 18.49 21.4 4 6 1013.1 0 39.8 38.9 74.5 197.0 216.1 750.4
06 19:00 25.4 79 18.6 21.5 7 11 1010.3 0 40.1 39.0 74.7 197.7 217.0 753.8
06 18:50 25.5 77 18.23 21.3 2 2 1013.1 0 39.3 38.4 73.1 193.3 211.6 734.8
06 18:40 25.6 76 18.09 21.2 6 7 1013.1 0 39.0 38.1 72.4 191.3 209.2 726.6
06 18:30 25.9 75 18.16 21.1 4 13 1010 0 39.1 37.9 72.2 191.0 208.9 725.8
06 18:20 26.1 74 18.12 21.1 6 6 1013.1 0 39.0 37.9 72.0 190.5 208.2 723.4
06 18:10 26.4 72 17.92 20.9 7 9 1013.1 0 38.5 37.4 70.8 187.3 204.5 710.2
06 18:00 26.8 70 17.82 20.9 7 15 1009.8 0 38.3 36.9 69.8 184.7 201.4 699.8
06 17:50 27.1 67 17.34 20.6 7 11 1013.1 0 37.2 36.0 67.6 178.8 194.2 674.6
06 17:40 26.9 66 16.89 20.2 9 11 1013.1 0 36.3 35.3 65.8 174.0 188.3 653.9
06 17:30 27.1 69 17.86 20.9 9 15 1009.7 0 38.4 36.8 69.7 184.4 201.2 699.1
06 17:20 27.3 67 17.53 20.6 13 19 1013.1 0 37.6 36.3 68.3 180.5 196.4 682.3
06 17:10 27.8 65 17.48 20.8 11 15 1013.1 0 37.5 36.0 67.6 178.8 194.4 675.4
06 17:00 27.6 64 17.03 20.2 9 20 1009.6 0 36.6 35.2 65.6 173.5 188.0 653.2
06 16:50 28 63 17.13 20.5 6 7 1013.1 0 36.7 35.3 65.9 174.3 188.9 656.4
06 16:40 27.6 65 17.29 20.4 13 17 1013.1 0 37.1 35.7 67.0 177.0 192.2 667.7
06 16:30 28.2 65 17.87 21.2 9 17 1009.5 0 38.3 36.4 68.8 181.9 198.4 689.5
06 16:20 28.1 63 17.23 20.6 11 15 1013.1 0 36.9 35.4 66.3 175.2 190.1 660.4
06 16:10 28.6 62 17.43 20.6 9 15 1013.1 0 37.3 35.6 66.7 176.4 191.7 666.0
06 16:00 28.4 61 16.96 20.2 9 19 1009.5 0 36.3 34.7 64.7 171.0 185.1 643.1
06 15:50 28.6 59 16.58 19.8 7 9 1013.1 0 35.5 34.1 63.1 166.7 179.8 624.7
06 15:40 28.6 59 16.58 19.8 11 15 1013.1 0 35.5 34.1 63.1 166.7 179.8 624.7
06 15:30 28.5 60 16.77 20.2 11 17 1009.5 0 35.9 34.3 63.8 168.6 182.2 633.1
06 15:20 28.9 58 16.57 20 13 15 1013.1 0 35.5 34.0 62.8 166.0 179.0 621.8
06 15:10 29 58 16.66 19.9 13 17 1013.1 0 35.6 34.1 63.1 166.8 180.0 625.3
06 15:00 29.8 56 16.8 20.1 7 15 1009.7 0 35.9 33.9 62.8 166.2 179.6 624.1
06 14:50 29.7 56 16.71 20.2 9 11 1013.1 0 35.7 33.9 62.7 165.8 179.0 622.1

Last Refresh: 07-Aug-2020 07:47:16

Most of the information presented on this site is sourced from the Bureau of Meteorology.  Copyright in all material sourced from the Bureau of Meteorology resides with the Commonwealth of Australia.